sensor_id;sensor_type;location;lat;lon;timestamp;pressure;altitude;pressure_sealevel;temperature;humidity
16580;BME280;8402;51.466;6.806;2022-11-15T00:01:14;100627.81;;;10.95;92.58
16580;BME280;8402;51.466;6.806;2022-11-15T00:03:43;100633.72;;;10.97;92.81
16580;BME280;8402;51.466;6.806;2022-11-15T00:06:11;100626.03;;;10.99;92.95
16580;BME280;8402;51.466;6.806;2022-11-15T00:08:39;100630.84;;;11.02;93.12
16580;BME280;8402;51.466;6.806;2022-11-15T00:11:10;100623.97;;;11.05;93.42
16580;BME280;8402;51.466;6.806;2022-11-15T00:13:39;100622.53;;;11.07;93.34
16580;BME280;8402;51.466;6.806;2022-11-15T00:16:08;100629.59;;;11.08;93.84
16580;BME280;8402;51.466;6.806;2022-11-15T00:18:37;100621.25;;;11.13;94.22
16580;BME280;8402;51.466;6.806;2022-11-15T00:21:07;100629.25;;;11.18;94.10
16580;BME280;8402;51.466;6.806;2022-11-15T00:23:35;100626.38;;;11.23;94.23
16580;BME280;8402;51.466;6.806;2022-11-15T00:26:04;100628.44;;;11.26;94.16
16580;BME280;8402;51.466;6.806;2022-11-15T00:28:32;100635.16;;;11.29;93.93
16580;BME280;8402;51.466;6.806;2022-11-15T00:31:02;100629.88;;;11.33;93.94
16580;BME280;8402;51.466;6.806;2022-11-15T00:33:31;100626.03;;;11.34;94.67
16580;BME280;8402;51.466;6.806;2022-11-15T00:36:00;100625.41;;;11.37;95.07
16580;BME280;8402;51.466;6.806;2022-11-15T00:38:31;100609.25;;;11.40;95.05
16580;BME280;8402;51.466;6.806;2022-11-15T00:41:00;100612.59;;;11.46;95.28
16580;BME280;8402;51.466;6.806;2022-11-15T00:43:34;100608.75;;;11.47;95.28
16580;BME280;8402;51.466;6.806;2022-11-15T00:46:04;100607.31;;;11.49;95.82
16580;BME280;8402;51.466;6.806;2022-11-15T00:48:32;100605.09;;;11.51;94.92
16580;BME280;8402;51.466;6.806;2022-11-15T00:51:00;100610.19;;;11.53;95.66
16580;BME280;8402;51.466;6.806;2022-11-15T00:53:28;100605.22;;;11.55;95.79
16580;BME280;8402;51.466;6.806;2022-11-15T00:55:56;100606.50;;;11.57;95.35
16580;BME280;8402;51.466;6.806;2022-11-15T00:58:24;100606.19;;;11.59;95.22
16580;BME280;8402;51.466;6.806;2022-11-15T01:00:52;100606.19;;;11.59;95.59
16580;BME280;8402;51.466;6.806;2022-11-15T01:03:21;100606.31;;;11.63;95.72
16580;BME280;8402;51.466;6.806;2022-11-15T01:05:49;100598.78;;;11.68;95.69
16580;BME280;8402;51.466;6.806;2022-11-15T01:08:17;100604.41;;;11.72;96.14
16580;BME280;8402;51.466;6.806;2022-11-15T01:10:44;100598.63;;;11.73;95.73
16580;BME280;8402;51.466;6.806;2022-11-15T01:13:12;100595.25;;;11.76;96.25
16580;BME280;8402;51.466;6.806;2022-11-15T01:15:41;100599.56;;;11.77;96.79
16580;BME280;8402;51.466;6.806;2022-11-15T01:18:09;100600.06;;;11.79;96.38
16580;BME280;8402;51.466;6.806;2022-11-15T01:20:40;100603.06;;;11.78;96.22
16580;BME280;8402;51.466;6.806;2022-11-15T01:23:09;100603.88;;;11.78;97.81
16580;BME280;8402;51.466;6.806;2022-11-15T01:25:37;100595.56;;;11.83;96.99
16580;BME280;8402;51.466;6.806;2022-11-15T01:28:05;100587.88;;;11.85;96.77
16580;BME280;8402;51.466;6.806;2022-11-15T01:30:33;100591.22;;;11.91;97.72
16580;BME280;8402;51.466;6.806;2022-11-15T01:33:00;100589.00;;;11.93;97.10
16580;BME280;8402;51.466;6.806;2022-11-15T01:35:28;100581.75;;;11.97;97.83
16580;BME280;8402;51.466;6.806;2022-11-15T01:37:57;100578.25;;;11.97;97.22
16580;BME280;8402;51.466;6.806;2022-11-15T01:40:25;100574.88;;;12.00;97.28
16580;BME280;8402;51.466;6.806;2022-11-15T01:42:53;100562.09;;;12.00;97.45
16580;BME280;8402;51.466;6.806;2022-11-15T01:45:21;100571.50;;;12.03;97.19
16580;BME280;8402;51.466;6.806;2022-11-15T01:47:52;100567.31;;;12.05;96.84
16580;BME280;8402;51.466;6.806;2022-11-15T01:50:24;100565.22;;;12.11;96.88
16580;BME280;8402;51.466;6.806;2022-11-15T01:52:54;100558.31;;;12.13;97.23
16580;BME280;8402;51.466;6.806;2022-11-15T01:55:26;100565.03;;;12.16;96.79
16580;BME280;8402;51.466;6.806;2022-11-15T01:57:57;100561.19;;;12.17;96.88
16580;BME280;8402;51.466;6.806;2022-11-15T02:00:28;100565.97;;;12.20;96.97
16580;BME280;8402;51.466;6.806;2022-11-15T02:02:56;100562.59;;;12.23;96.96
16580;BME280;8402;51.466;6.806;2022-11-15T02:05:24;100561.00;;;12.22;97.35
16580;BME280;8402;51.466;6.806;2022-11-15T02:07:53;100562.94;;;12.22;96.90
16580;BME280;8402;51.466;6.806;2022-11-15T02:10:24;100555.56;;;12.22;96.79
16580;BME280;8402;51.466;6.806;2022-11-15T02:12:52;100552.19;;;12.25;97.56
16580;BME280;8402;51.466;6.806;2022-11-15T02:15:21;100549.47;;;12.25;97.05
16580;BME280;8402;51.466;6.806;2022-11-15T02:18:02;100546.63;;;12.22;96.90
16580;BME280;8402;51.466;6.806;2022-11-15T02:20:55;100544.19;;;12.20;97.61
16580;BME280;8402;51.466;6.806;2022-11-15T02:23:53;100544.19;;;12.20;97.15
16580;BME280;8402;51.466;6.806;2022-11-15T02:29:32;100542.25;;;12.29;97.65
16580;BME280;8402;51.466;6.806;2022-11-15T02:32:14;100543.03;;;12.30;97.97
16580;BME280;8402;51.466;6.806;2022-11-15T02:34:51;100540.09;;;12.35;97.47
16580;BME280;8402;51.466;6.806;2022-11-15T02:37:28;100539.91;;;12.40;97.42
16580;BME280;8402;51.466;6.806;2022-11-15T02:40:04;100553.34;;;12.45;96.87
16580;BME280;8402;51.466;6.806;2022-11-15T02:42:36;100543.88;;;12.43;97.06
16580;BME280;8402;51.466;6.806;2022-11-15T02:45:35;100537.34;;;12.44;97.05
16580;BME280;8402;51.466;6.806;2022-11-15T02:48:07;100533.50;;;12.45;97.69
16580;BME280;8402;51.466;6.806;2022-11-15T02:50:36;100531.91;;;12.44;97.50
16580;BME280;8402;51.466;6.806;2022-11-15T02:53:05;100538.72;;;12.50;97.77
16580;BME280;8402;51.466;6.806;2022-11-15T02:55:34;100529.44;;;12.51;97.71
16580;BME280;8402;51.466;6.806;2022-11-15T02:58:19;100538.41;;;12.51;98.18
16580;BME280;8402;51.466;6.806;2022-11-15T03:00:56;100532.75;;;12.56;98.41
16580;BME280;8402;51.466;6.806;2022-11-15T03:03:42;100537.88;;;12.58;98.01
16580;BME280;8402;51.466;6.806;2022-11-15T03:06:21;100525.97;;;12.62;98.04
16580;BME280;8402;51.466;6.806;2022-11-15T03:08:59;100527.72;;;12.67;97.91
16580;BME280;8402;51.466;6.806;2022-11-15T03:11:32;100527.72;;;12.67;97.72
16580;BME280;8402;51.466;6.806;2022-11-15T03:14:10;100532.03;;;12.68;97.81
16580;BME280;8402;51.466;6.806;2022-11-15T03:16:43;100525.91;;;12.71;97.93
16580;BME280;8402;51.466;6.806;2022-11-15T03:19:20;100532.97;;;12.72;97.42
16580;BME280;8402;51.466;6.806;2022-11-15T03:21:52;100524.47;;;12.74;97.13
16580;BME280;8402;51.466;6.806;2022-11-15T03:24:23;100525.25;;;12.74;97.38
16580;BME280;8402;51.466;6.806;2022-11-15T03:26:53;100522.19;;;12.76;97.30
16580;BME280;8402;51.466;6.806;2022-11-15T03:29:25;100527.63;;;12.76;97.29
16580;BME280;8402;51.466;6.806;2022-11-15T03:31:58;100525.38;;;12.78;97.64
16580;BME280;8402;51.466;6.806;2022-11-15T03:34:32;100523.91;;;12.80;97.57
16580;BME280;8402;51.466;6.806;2022-11-15T03:37:02;100519.38;;;12.84;97.68
16580;BME280;8402;51.466;6.806;2022-11-15T03:39:31;100517.78;;;12.83;97.27
16580;BME280;8402;51.466;6.806;2022-11-15T03:42:10;100508.50;;;12.84;98.29
16580;BME280;8402;51.466;6.806;2022-11-15T03:44:46;100510.22;;;12.89;98.19
16580;BME280;8402;51.466;6.806;2022-11-15T03:47:21;100507.84;;;12.87;97.52
16580;BME280;8402;51.466;6.806;2022-11-15T03:49:55;100507.94;;;12.91;98.15
16580;BME280;8402;51.466;6.806;2022-11-15T03:52:26;100503.00;;;12.93;97.74
16580;BME280;8402;51.466;6.806;2022-11-15T03:55:00;100509.69;;;12.95;98.04
16580;BME280;8402;51.466;6.806;2022-11-15T03:57:28;100506.63;;;12.97;98.54
16580;BME280;8402;51.466;6.806;2022-11-15T03:59:56;100505.97;;;13.00;98.05
16580;BME280;8402;51.466;6.806;2022-11-15T04:02:24;100496.31;;;13.03;98.31
16580;BME280;8402;51.466;6.806;2022-11-15T04:04:54;100499.16;;;13.06;98.01
16580;BME280;8402;51.466;6.806;2022-11-15T04:07:22;100489.53;;;13.09;98.24
16580;BME280;8402;51.466;6.806;2022-11-15T04:09:50;100496.56;;;13.10;97.59
16580;BME280;8402;51.466;6.806;2022-11-15T04:12:30;100495.75;;;13.09;97.31
16580;BME280;8402;51.466;6.806;2022-11-15T04:15:00;100490.31;;;13.09;98.13
16580;BME280;8402;51.466;6.806;2022-11-15T04:17:39;100489.97;;;13.11;97.83
16580;BME280;8402;51.466;6.806;2022-11-15T04:20:14;100493.16;;;13.13;97.90
16580;BME280;8402;51.466;6.806;2022-11-15T04:23:01;100491.00;;;13.18;98.06
16580;BME280;8402;51.466;6.806;2022-11-15T04:25:49;100487.16;;;13.19;97.76
16580;BME280;8402;51.466;6.806;2022-11-15T04:28:17;100493.44;;;13.20;97.77
16580;BME280;8402;51.466;6.806;2022-11-15T04:30:45;100489.56;;;13.21;97.95
16580;BME280;8402;51.466;6.806;2022-11-15T04:33:14;100494.34;;;13.24;97.56
16580;BME280;8402;51.466;6.806;2022-11-15T04:35:43;100490.03;;;13.23;97.72
16580;BME280;8402;51.466;6.806;2022-11-15T04:38:31;100490.03;;;13.23;97.51
16580;BME280;8402;51.466;6.806;2022-11-15T04:40:58;100494.34;;;13.24;97.21
16580;BME280;8402;51.466;6.806;2022-11-15T04:43:26;100489.81;;;13.28;97.71
16580;BME280;8402;51.466;6.806;2022-11-15T04:45:54;100486.88;;;13.33;97.74
16580;BME280;8402;51.466;6.806;2022-11-15T04:48:22;100485.06;;;13.37;97.02
16580;BME280;8402;51.466;6.806;2022-11-15T04:50:51;100485.06;;;13.37;96.91
16580;BME280;8402;51.466;6.806;2022-11-15T04:53:19;100492.09;;;13.38;96.72
16580;BME280;8402;51.466;6.806;2022-11-15T04:55:47;100487.00;;;13.37;96.62
16580;BME280;8402;51.466;6.806;2022-11-15T04:58:15;100486.22;;;13.36;96.59
16580;BME280;8402;51.466;6.806;2022-11-15T05:00:43;100487.78;;;13.37;97.13
16580;BME280;8402;51.466;6.806;2022-11-15T05:03:10;100491.66;;;13.36;96.92
16580;BME280;8402;51.466;6.806;2022-11-15T05:05:58;100497.56;;;13.38;97.29
16580;BME280;8402;51.466;6.806;2022-11-15T05:08:26;100493.69;;;13.39;97.40
16580;BME280;8402;51.466;6.806;2022-11-15T05:10:54;100487.09;;;13.40;97.52
16580;BME280;8402;51.466;6.806;2022-11-15T05:13:22;100487.91;;;13.41;97.68
16580;BME280;8402;51.466;6.806;2022-11-15T05:15:50;100488.69;;;13.41;97.35
16580;BME280;8402;51.466;6.806;2022-11-15T05:18:18;100494.16;;;13.41;97.24
16580;BME280;8402;51.466;6.806;2022-11-15T05:20:49;100483.94;;;13.38;97.26
16580;BME280;8402;51.466;6.806;2022-11-15T05:23:18;100490.63;;;13.41;97.38
16580;BME280;8402;51.466;6.806;2022-11-15T05:25:46;100487.25;;;13.44;97.90
16580;BME280;8402;51.466;6.806;2022-11-15T05:28:14;100478.72;;;13.45;97.18
16580;BME280;8402;51.466;6.806;2022-11-15T05:30:42;100475.66;;;13.47;96.77
16580;BME280;8402;51.466;6.806;2022-11-15T05:33:10;100480.75;;;13.48;96.70
16580;BME280;8402;51.466;6.806;2022-11-15T05:35:40;100484.28;;;13.49;97.14
16580;BME280;8402;51.466;6.806;2022-11-15T05:38:09;100479.16;;;13.47;97.13
16580;BME280;8402;51.466;6.806;2022-11-15T05:40:38;100476.44;;;13.47;96.72
16580;BME280;8402;51.466;6.806;2022-11-15T05:43:06;100476.44;;;13.47;97.26
16580;BME280;8402;51.466;6.806;2022-11-15T05:45:34;100475.19;;;13.45;97.13
16580;BME280;8402;51.466;6.806;2022-11-15T05:48:06;100479.38;;;13.42;97.53
16580;BME280;8402;51.466;6.806;2022-11-15T05:50:36;100480.53;;;13.41;97.34
16580;BME280;8402;51.466;6.806;2022-11-15T05:53:06;100474.63;;;13.39;97.63
16580;BME280;8402;51.466;6.806;2022-11-15T05:55:34;100475.06;;;13.41;97.83
16580;BME280;8402;51.466;6.806;2022-11-15T05:58:03;100472.69;;;13.40;97.52
16580;BME280;8402;51.466;6.806;2022-11-15T06:00:31;100472.34;;;13.41;97.98
16580;BME280;8402;51.466;6.806;2022-11-15T06:02:59;100477.34;;;13.39;98.07
16580;BME280;8402;51.466;6.806;2022-11-15T06:05:27;100478.94;;;13.40;98.06
16580;BME280;8402;51.466;6.806;2022-11-15T06:07:57;100475.53;;;13.43;98.15
16580;BME280;8402;51.466;6.806;2022-11-15T06:10:25;100477.13;;;13.44;98.43
16580;BME280;8402;51.466;6.806;2022-11-15T06:12:57;100489.63;;;13.45;97.68
16580;BME280;8402;51.466;6.806;2022-11-15T06:15:27;100488.03;;;13.44;98.02
16580;BME280;8402;51.466;6.806;2022-11-15T06:17:56;100486.75;;;13.42;98.41
16580;BME280;8402;51.466;6.806;2022-11-15T06:20:25;100489.16;;;13.43;98.28
16580;BME280;8402;51.466;6.806;2022-11-15T06:22:56;100488.69;;;13.41;98.11
16580;BME280;8402;51.466;6.806;2022-11-15T06:25:24;100504.25;;;13.41;97.99
16580;BME280;8402;51.466;6.806;2022-11-15T06:27:53;100496.88;;;13.41;98.42
16580;BME280;8402;51.466;6.806;2022-11-15T06:30:22;100503.47;;;13.40;97.87
16580;BME280;8402;51.466;6.806;2022-11-15T06:32:58;100500.16;;;13.35;98.36
16580;BME280;8402;51.466;6.806;2022-11-15T06:35:26;100508.00;;;13.36;98.29
16580;BME280;8402;51.466;6.806;2022-11-15T06:37:54;100497.13;;;13.36;98.51
16580;BME280;8402;51.466;6.806;2022-11-15T06:40:22;100499.50;;;13.38;98.51
16580;BME280;8402;51.466;6.806;2022-11-15T06:42:50;100499.16;;;13.39;98.34
16580;BME280;8402;51.466;6.806;2022-11-15T06:45:18;100498.69;;;13.37;98.79
16580;BME280;8402;51.466;6.806;2022-11-15T06:47:46;100505.28;;;13.36;98.42
16580;BME280;8402;51.466;6.806;2022-11-15T06:50:16;100506.53;;;13.39;98.39
16580;BME280;8402;51.466;6.806;2022-11-15T06:52:43;100507.66;;;13.38;98.93
16580;BME280;8402;51.466;6.806;2022-11-15T06:55:11;100510.97;;;13.43;97.99
16580;BME280;8402;51.466;6.806;2022-11-15T06:57:46;100516.44;;;13.43;97.90
16580;BME280;8402;51.466;6.806;2022-11-15T07:00:16;100509.34;;;13.42;98.34
16580;BME280;8402;51.466;6.806;2022-11-15T07:02:44;100519.47;;;13.42;98.11
16580;BME280;8402;51.466;6.806;2022-11-15T07:05:13;100518.22;;;13.39;98.20
16580;BME280;8402;51.466;6.806;2022-11-15T07:07:42;100515.50;;;13.39;98.05
16580;BME280;8402;51.466;6.806;2022-11-15T07:10:11;100524.03;;;13.38;98.59
16580;BME280;8402;51.466;6.806;2022-11-15T07:12:38;100529.00;;;13.36;98.76
16580;BME280;8402;51.466;6.806;2022-11-15T07:15:07;100530.47;;;13.33;98.44
16580;BME280;8402;51.466;6.806;2022-11-15T07:17:36;100540.56;;;13.33;98.58
16580;BME280;8402;51.466;6.806;2022-11-15T07:20:05;100539.78;;;13.32;98.48
16580;BME280;8402;51.466;6.806;2022-11-15T07:22:33;100535.47;;;13.31;98.17
16580;BME280;8402;51.466;6.806;2022-11-15T07:25:02;100540.56;;;13.33;98.70
16580;BME280;8402;51.466;6.806;2022-11-15T07:27:31;100549.09;;;13.31;98.93
16580;BME280;8402;51.466;6.806;2022-11-15T07:29:59;100545.22;;;13.32;98.78
16580;BME280;8402;51.466;6.806;2022-11-15T07:32:27;100549.19;;;13.35;98.57
16580;BME280;8402;51.466;6.806;2022-11-15T07:34:55;100549.34;;;13.38;98.70
16580;BME280;8402;51.466;6.806;2022-11-15T07:37:23;100557.31;;;13.43;98.39
16580;BME280;8402;51.466;6.806;2022-11-15T07:39:51;100551.38;;;13.41;98.03
16580;BME280;8402;51.466;6.806;2022-11-15T07:42:20;100562.75;;;13.43;97.98
16580;BME280;8402;51.466;6.806;2022-11-15T07:45:06;100562.63;;;13.40;97.54
16580;BME280;8402;51.466;6.806;2022-11-15T07:47:34;100559.56;;;13.41;97.28
16580;BME280;8402;51.466;6.806;2022-11-15T07:50:02;100565.00;;;13.41;97.40
16580;BME280;8402;51.466;6.806;2022-11-15T07:52:30;100570.44;;;13.41;97.32
16580;BME280;8402;51.466;6.806;2022-11-15T07:54:58;100563.41;;;13.40;96.83
16580;BME280;8402;51.466;6.806;2022-11-15T07:57:29;100570.34;;;13.38;96.44
16580;BME280;8402;51.466;6.806;2022-11-15T07:59:57;100583.63;;;13.39;96.60
16580;BME280;8402;51.466;6.806;2022-11-15T08:02:25;100597.72;;;13.41;97.08
16580;BME280;8402;51.466;6.806;2022-11-15T08:04:56;100609.28;;;13.38;97.05
16580;BME280;8402;51.466;6.806;2022-11-15T08:07:24;100606.78;;;13.33;97.19
16580;BME280;8402;51.466;6.806;2022-11-15T08:09:52;100613.44;;;13.24;96.63
16580;BME280;8402;51.466;6.806;2022-11-15T08:12:21;100622.56;;;13.19;96.70
16580;BME280;8402;51.466;6.806;2022-11-15T08:14:51;100623.25;;;13.16;97.43
16580;BME280;8402;51.466;6.806;2022-11-15T08:17:19;100623.13;;;13.12;97.51
16580;BME280;8402;51.466;6.806;2022-11-15T08:19:47;100607.56;;;13.13;97.80
16580;BME280;8402;51.466;6.806;2022-11-15T08:22:15;100611.41;;;13.12;97.65
16580;BME280;8402;51.466;6.806;2022-11-15T08:24:43;100602.66;;;13.06;97.71
16580;BME280;8402;51.466;6.806;2022-11-15T08:27:11;100595.75;;;13.09;97.90
16580;BME280;8402;51.466;6.806;2022-11-15T08:29:43;100601.84;;;13.06;98.06
16580;BME280;8402;51.466;6.806;2022-11-15T08:32:12;100604.25;;;13.07;97.91
16580;BME280;8402;51.466;6.806;2022-11-15T08:34:40;100598.00;;;13.07;98.40
16580;BME280;8402;51.466;6.806;2022-11-15T08:37:08;100590.75;;;13.11;98.25
16580;BME280;8402;51.466;6.806;2022-11-15T08:39:36;100594.63;;;13.10;98.66
16580;BME280;8402;51.466;6.806;2022-11-15T08:42:05;100594.28;;;13.11;98.15
16580;BME280;8402;51.466;6.806;2022-11-15T08:44:33;100590.44;;;13.12;98.68
16580;BME280;8402;51.466;6.806;2022-11-15T08:47:01;100590.09;;;13.14;98.36
16580;BME280;8402;51.466;6.806;2022-11-15T08:49:30;100583.38;;;13.11;98.50
16580;BME280;8402;51.466;6.806;2022-11-15T08:51:58;100580.31;;;13.13;98.44
16580;BME280;8402;51.466;6.806;2022-11-15T08:54:26;100578.09;;;13.15;98.64
16580;BME280;8402;51.466;6.806;2022-11-15T08:56:54;100575.81;;;13.17;98.14
16580;BME280;8402;51.466;6.806;2022-11-15T08:59:22;100561.06;;;13.18;98.54
16580;BME280;8402;51.466;6.806;2022-11-15T09:01:50;100562.63;;;13.19;98.12
16580;BME280;8402;51.466;6.806;2022-11-15T09:04:18;100564.41;;;13.24;98.37
16580;BME280;8402;51.466;6.806;2022-11-15T09:06:48;100559.84;;;13.28;97.88
16580;BME280;8402;51.466;6.806;2022-11-15T09:09:16;100566.91;;;13.29;97.88
16580;BME280;8402;51.466;6.806;2022-11-15T09:11:44;100562.72;;;13.31;97.63
16580;BME280;8402;51.466;6.806;2022-11-15T09:14:13;100557.06;;;13.36;97.92
16580;BME280;8402;51.466;6.806;2022-11-15T09:16:42;100549.44;;;13.42;97.89
16580;BME280;8402;51.466;6.806;2022-11-15T09:19:10;100549.69;;;13.49;97.28
16580;BME280;8402;51.466;6.806;2022-11-15T09:21:38;100549.13;;;13.56;97.42
16580;BME280;8402;51.466;6.806;2022-11-15T09:24:07;100547.69;;;13.58;97.15
16580;BME280;8402;51.466;6.806;2022-11-15T09:26:39;100553.38;;;13.65;96.72
16580;BME280;8402;51.466;6.806;2022-11-15T09:29:07;100555.19;;;13.73;96.57
16580;BME280;8402;51.466;6.806;2022-11-15T09:31:35;100542.13;;;13.79;96.44
16580;BME280;8402;51.466;6.806;2022-11-15T09:34:03;100546.09;;;13.82;96.32
16580;BME280;8402;51.466;6.806;2022-11-15T09:36:31;100543.72;;;13.80;95.48
16580;BME280;8402;51.466;6.806;2022-11-15T09:38:59;100546.44;;;13.80;95.66
16580;BME280;8402;51.466;6.806;2022-11-15T09:41:47;100548.25;;;13.76;95.03
16580;BME280;8402;51.466;6.806;2022-11-15T09:44:34;100541.22;;;13.75;94.86
16580;BME280;8402;51.466;6.806;2022-11-15T09:47:27;100543.25;;;13.78;95.00
16580;BME280;8402;51.466;6.806;2022-11-15T09:50:01;100532.56;;;13.85;95.22
16580;BME280;8402;51.466;6.806;2022-11-15T09:52:29;100516.69;;;13.87;94.61
16580;BME280;8402;51.466;6.806;2022-11-15T09:54:57;100518.25;;;13.88;93.95
16580;BME280;8402;51.466;6.806;2022-11-15T09:57:32;100515.09;;;13.86;93.05
16580;BME280;8402;51.466;6.806;2022-11-15T10:00:08;100505.78;;;13.87;93.09
16580;BME280;8402;51.466;6.806;2022-11-15T10:03:08;100498.72;;;13.86;92.92
16580;BME280;8402;51.466;6.806;2022-11-15T10:05:39;100500.31;;;13.87;92.92
16580;BME280;8402;51.466;6.806;2022-11-15T10:08:22;100508.03;;;13.85;91.04
16580;BME280;8402;51.466;6.806;2022-11-15T10:10:56;100494.88;;;13.87;91.19
16580;BME280;8402;51.466;6.806;2022-11-15T10:13:47;100489.84;;;13.89;89.86
16580;BME280;8402;51.466;6.806;2022-11-15T10:19:17;100483.16;;;13.87;87.97
16580;BME280;8402;51.466;6.806;2022-11-15T10:21:56;100488.94;;;13.85;87.23
16580;BME280;8402;51.466;6.806;2022-11-15T10:24:28;100492.59;;;13.89;88.61
16580;BME280;8402;51.466;6.806;2022-11-15T10:26:56;100492.59;;;13.89;87.01
16580;BME280;8402;51.466;6.806;2022-11-15T10:29:26;100482.13;;;13.91;87.29
16580;BME280;8402;51.466;6.806;2022-11-15T10:31:54;100479.50;;;13.95;87.05
16580;BME280;8402;51.466;6.806;2022-11-15T10:34:23;100479.59;;;13.98;86.85
16580;BME280;8402;51.466;6.806;2022-11-15T10:36:55;100475.06;;;14.02;86.18
16580;BME280;8402;51.466;6.806;2022-11-15T10:39:24;100465.75;;;14.03;85.44
16580;BME280;8402;51.466;6.806;2022-11-15T10:41:52;100463.47;;;14.05;86.08
16580;BME280;8402;51.466;6.806;2022-11-15T10:44:23;100446.41;;;14.09;85.47
16580;BME280;8402;51.466;6.806;2022-11-15T10:50:26;100452.44;;;14.02;84.60
16580;BME280;8402;51.466;6.806;2022-11-15T10:52:55;100450.72;;;14.10;84.69
16580;BME280;8402;51.466;6.806;2022-11-15T10:55:26;100441.06;;;14.12;85.09
16580;BME280;8402;51.466;6.806;2022-11-15T10:57:58;100445.03;;;14.15;81.87
16580;BME280;8402;51.466;6.806;2022-11-15T11:00:33;100437.28;;;14.17;83.58
16580;BME280;8402;51.466;6.806;2022-11-15T11:03:03;100437.06;;;14.22;82.81
16580;BME280;8402;51.466;6.806;2022-11-15T11:05:39;100431.69;;;14.25;82.00
16580;BME280;8402;51.466;6.806;2022-11-15T11:08:23;100437.50;;;14.24;81.90
16580;BME280;8402;51.466;6.806;2022-11-15T11:10:55;100431.34;;;14.27;80.40
16580;BME280;8402;51.466;6.806;2022-11-15T11:13:30;100439.28;;;14.32;79.79
16580;BME280;8402;51.466;6.806;2022-11-15T11:16:17;100418.25;;;14.32;79.52
16580;BME280;8402;51.466;6.806;2022-11-15T11:18:54;100425.28;;;14.33;79.09
16580;BME280;8402;51.466;6.806;2022-11-15T11:21:33;100419.03;;;14.33;78.04
16580;BME280;8402;51.466;6.806;2022-11-15T11:24:12;100421.53;;;14.38;77.66
16580;BME280;8402;51.466;6.806;2022-11-15T11:26:48;100421.53;;;14.38;77.57
16580;BME280;8402;51.466;6.806;2022-11-15T11:29:33;100416.06;;;14.38;77.81
16580;BME280;8402;51.466;6.806;2022-11-15T11:32:17;100416.53;;;14.40;77.25
16580;BME280;8402;51.466;6.806;2022-11-15T11:34:57;100425.06;;;14.39;76.40
16580;BME280;8402;51.466;6.806;2022-11-15T11:37:32;100422.22;;;14.35;75.08
16580;BME280;8402;51.466;6.806;2022-11-15T11:40:14;100416.66;;;14.31;76.24
16580;BME280;8402;51.466;6.806;2022-11-15T11:42:51;100418.84;;;14.26;73.84
16580;BME280;8402;51.466;6.806;2022-11-15T11:45:43;100405.19;;;14.26;74.59
16580;BME280;8402;51.466;6.806;2022-11-15T11:48:23;100412.50;;;14.22;74.30
16580;BME280;8402;51.466;6.806;2022-11-15T11:51:02;100415.69;;;14.12;73.37
16580;BME280;8402;51.466;6.806;2022-11-15T11:53:39;100412.09;;;14.08;72.24
16580;BME280;8402;51.466;6.806;2022-11-15T11:56:16;100411.28;;;14.07;74.31
16580;BME280;8402;51.466;6.806;2022-11-15T11:58:48;100404.69;;;14.08;75.52
16580;BME280;8402;51.466;6.806;2022-11-15T12:01:19;100395.38;;;14.09;75.65
16580;BME280;8402;51.466;6.806;2022-11-15T12:03:54;100396.16;;;14.10;75.46
16580;BME280;8402;51.466;6.806;2022-11-15T12:06:30;100406.63;;;14.08;72.00
16580;BME280;8402;51.466;6.806;2022-11-15T12:09:05;100391.84;;;14.09;71.96
16580;BME280;8402;51.466;6.806;2022-11-15T12:11:41;100403.91;;;14.08;71.64
16580;BME280;8402;51.466;6.806;2022-11-15T12:14:19;100394.13;;;14.07;71.87
16580;BME280;8402;51.466;6.806;2022-11-15T12:16:50;100401.63;;;14.10;73.48
16580;BME280;8402;51.466;6.806;2022-11-15T12:19:18;100388.78;;;14.10;72.74
16580;BME280;8402;51.466;6.806;2022-11-15T12:21:48;100383.31;;;14.10;72.67
16580;BME280;8402;51.466;6.806;2022-11-15T12:24:22;100382.53;;;14.10;70.71
16580;BME280;8402;51.466;6.806;2022-11-15T12:26:57;100379.00;;;14.09;70.84
16580;BME280;8402;51.466;6.806;2022-11-15T12:29:31;100372.28;;;14.07;70.86
16580;BME280;8402;51.466;6.806;2022-11-15T12:31:59;100362.88;;;14.04;69.95
16580;BME280;8402;51.466;6.806;2022-11-15T12:34:38;100354.13;;;13.98;68.47
16580;BME280;8402;51.466;6.806;2022-11-15T12:37:33;100349.38;;;13.95;68.89
16580;BME280;8402;51.466;6.806;2022-11-15T12:40:18;100351.66;;;13.93;70.09
16580;BME280;8402;51.466;6.806;2022-11-15T12:45:53;100337.97;;;14.05;70.36
16580;BME280;8402;51.466;6.806;2022-11-15T12:48:46;100333.31;;;14.06;68.90
16580;BME280;8402;51.466;6.806;2022-11-15T12:51:15;100315.53;;;14.12;69.66
16580;BME280;8402;51.466;6.806;2022-11-15T12:53:43;100311.59;;;14.10;70.82
16580;BME280;8402;51.466;6.806;2022-11-15T12:56:23;100302.97;;;14.08;67.87
16580;BME280;8402;51.466;6.806;2022-11-15T12:58:54;100298.81;;;14.14;69.88
16580;BME280;8402;51.466;6.806;2022-11-15T13:02:00;100304.56;;;14.09;67.77
16580;BME280;8402;51.466;6.806;2022-11-15T13:04:29;100292.13;;;14.11;68.34
16580;BME280;8402;51.466;6.806;2022-11-15T13:07:00;100289.06;;;14.13;68.55
16580;BME280;8402;51.466;6.806;2022-11-15T13:09:54;100287.03;;;14.10;68.03
16580;BME280;8402;51.466;6.806;2022-11-15T13:12:52;100284.31;;;14.10;68.70
16580;BME280;8402;51.466;6.806;2022-11-15T13:15:38;100279.72;;;14.14;70.45
16580;BME280;8402;51.466;6.806;2022-11-15T13:18:41;100269.72;;;14.18;69.65
16580;BME280;8402;51.466;6.806;2022-11-15T13:21:21;100264.00;;;14.23;70.62
16580;BME280;8402;51.466;6.806;2022-11-15T13:24:12;100257.16;;;14.29;71.04
16580;BME280;8402;51.466;6.806;2022-11-15T13:26:41;100255.28;;;14.33;69.45
16580;BME280;8402;51.466;6.806;2022-11-15T13:29:16;100263.47;;;14.33;69.27
16580;BME280;8402;51.466;6.806;2022-11-15T13:31:45;100254.69;;;14.40;70.37
16580;BME280;8402;51.466;6.806;2022-11-15T13:34:24;100261.72;;;14.41;70.52
16580;BME280;8402;51.466;6.806;2022-11-15T13:37:13;100250.22;;;14.47;70.21
16580;BME280;8402;51.466;6.806;2022-11-15T13:40:15;100248.66;;;14.46;70.58